MP3/FLAC

‹ prev 2018-02-05 next › 402 release(s) · 37,73 GB · filter: day
Release Group Size Files Date ↓
Penthouse_Penthouse-To_The_Sun_(Feat_Kingjet)-WEB-2018-POWPOW POWPOW 9,26 MB 5 2018-02-05
Autobahn-The_World_Around_You_Is_Fractured_Somehow-WEB-2018-POWPOW POWPOW 9,71 MB 5 2018-02-05
Dead_Kennedys-Spend_July_4th_With_Dead_Kennedys-(JOL9201)-CD-FLAC-1992-BITOCUL BITOCUL 249,97 MB 18 2018-02-05
Ray_Charles_Et_Les_Raelets-Hallelujah_I_Love_Her_So-(212036)-VLS-FLAC-1961-BITOCUL BITOCUL 184,79 MB 7 2018-02-05
The_Dead_Milkmen-Death_Rides_A_Pale_Cow_(The_Ultimate_Collection)-(01877-72945-2)-CD-FLAC-1997-BITOCUL BITOCUL 442,51 MB 26 2018-02-05
Redline-Redline-CD-FLAC-1998-FiXIE FiXIE 331,90 MB 14 2018-02-05
Spoken-Last_Chance_To_Breathe-CD-FLAC-2005-FiXIE FiXIE 308,89 MB 15 2018-02-05
Grimlin-Trapped_On_Tape-WEB-2018-WRT WRT 98,40 MB 13 2018-02-05
Savtik-Suggested_Use-WEB-2018-WRT WRT 25,06 MB 7 2018-02-05
Sarah_Lynn_-_Put_You_Together_Again-(AMSTR209)-WEB-2018-MMS MMS 17,09 MB 4 2018-02-05
Stargazers_And_Sue_Mclaren_-_The_Perfect_Storm-(EL003)-WEB-2018-MMS MMS 15,27 MB 4 2018-02-05
The_Blizzard_And_Denise_Rivera_-_Love_Is_In_The_Little_Things-(RNMR092)-WEB-2018-MMS MMS 17,37 MB 4 2018-02-05
Traams-Printemps_De_Bourges-DVBS-2014-JUST JUST 53,21 MB 5 2018-02-05
Luca_Debonaire_and_Tom_Boye-Movin_On-(PHM_743)-WEB-2018-BB8 BB8 12,49 MB 4 2018-02-05
Audioglider-23_Years-(NYC_075)-WEB-2018-BB8 BB8 55,01 MB 6 2018-02-05
VA_-_Alok_Presents_Scorsi-WEB-2018-FMC FMC 28,99 MB 7 2018-02-05
Anthony_Giordano-Land_Of_Tales-(KOK2450)-WEB-2018-LEV LEV 62,77 MB 13 2018-02-05
Barstool_Buskers-Scratch_Tracks-WEB-2018-LEV LEV 76,99 MB 14 2018-02-05
Bertrand_Allagnat_And_Brice_Davoli-A_Marvelous_Day-WEB-2018-LEV LEV 36,07 MB 14 2018-02-05
Bonsai_Universe-Moonstream-WEB-2018-LEV LEV 122,58 MB 16 2018-02-05
Cast-All_Change_Live-WEB-2018-LEV LEV 193,73 MB 21 2018-02-05
Chill_Out_2017-Love_Beats_2018-(BDD084)-WEB-2018-LEV LEV 74,39 MB 11 2018-02-05
DJ_Luciano-Ultra_Melodies-(LDR0897)-WEB-2018-LEV LEV 71,90 MB 13 2018-02-05
Denim_Skull-Denim_Skull-WEB-2018-LEV LEV 28,66 MB 12 2018-02-05
Eric_Chevalier-The_Swell_Orchestra-(KOK2387)-WEB-2018-LEV LEV 85,05 MB 20 2018-02-05
Fragile_Things-Echo_Chambers-WEB-2018-LEV LEV 42,78 MB 9 2018-02-05
Go_Go_Gonzo_Flow-Late_Bloomer_Disc_One__ROCK-WEB-2018-LEV LEV 72,52 MB 11 2018-02-05
Greenface-The_Hideway-(3614979923795)-WEB-2018-LEV LEV 119,64 MB 14 2018-02-05
Kypa-Bitter_Sweet-(18A006)-WEB-2018-LEV LEV 179,09 MB 20 2018-02-05
Maybe_Not-Maybe_Not-WEB-2018-LEV LEV 25,28 MB 8 2018-02-05
Mchy_I_Porosty-Hypnagogic_Polish_Music_For_Teenage_Mutants-(R-SP01)-WEB-2017-LEV LEV 102,57 MB 10 2018-02-05
Moon_Museum-From_No_To_Nowhere-WEB-2018-LEV LEV 108,55 MB 18 2018-02-05
Nature_Soundscape-Healing_Sounds_Thunderstorm-WEB-2018-LEV LEV 149,90 MB 34 2018-02-05
Nicolas_Montazaud-Jolis_Souvenirs_2-(KOK2386)-WEB-2018-LEV LEV 84,97 MB 21 2018-02-05
Nomads_and_Natives-Till_We_Are_Home-WEB-2018-LEV LEV 57,55 MB 9 2018-02-05
Peppe_Piraino-Peppe_Piraino-WEB-2018-LEV LEV 43,43 MB 11 2018-02-05
Peristaltic_Movement-Anomalies_Museum-WEB-2018-LEV LEV 88,53 MB 13 2018-02-05
Rewire_The_Time_Machine-Rewire_The_Time_Machine-WEB-2018-LEV LEV 121,95 MB 14 2018-02-05
Rodrigo_Mancebo-Project_Song_Diary_(Week_05)-WEB-2018-LEV LEV 99,69 MB 10 2018-02-05
Slave_To_Misery-The_Maze-WEB-2018-LEV LEV 90,53 MB 11 2018-02-05
Toque_De_Keda-Estamos_En_Canarias-WEB-2018-LEV LEV 67,87 MB 12 2018-02-05
Tystix-Teaming_With_Microbes-(PISTOLERO023)-WEB-2018-LEV LEV 155,56 MB 12 2018-02-05
UpStroke7-Under_The_Water-WEB-2018-LEV LEV 47,73 MB 9 2018-02-05
Zlatko_Jacimovic-The_Duality-(THEDUALITY2018)-WEB-2018-LEV LEV 84,64 MB 10 2018-02-05
Mooz_and_Carara-Nord_Und_Sur-(HDDNST006)-WEB-2018-B2R B2R 81,95 MB 7 2018-02-05
Cabal_-_Samsara-(DNDI194)-WEB-2018-BarGhest BarGhest 16,52 MB 5 2018-02-05
Doktor_Froid_-_Adwa-(ARC246)-WEB-2018-BarGhest BarGhest 12,31 MB 4 2018-02-05
Organic_Flow_-_Feeling_Different-(GEOEP282)-WEB-2018-BarGhest BarGhest 56,44 MB 7 2018-02-05
Psymon_And_Sixsense_-_Shivanam-(OVNIEP274)-WEB-2018-BarGhest BarGhest 49,54 MB 6 2018-02-05
VA_-_RETROSPECTIVE-(SMRDIGIEP023)-WEB-2018-BarGhest BarGhest 202,80 MB 15 2018-02-05